sensor_id;sensor_type;location;lat;lon;timestamp;P1;durP1;ratioP1;P2;durP2;ratioP2
12151;SDS011;6139;51.274;7.128;2023-06-22T00:00:05;5.63;;;4.13;;
12151;SDS011;6139;51.274;7.128;2023-06-22T00:01:12;5.68;;;4.22;;
12151;SDS011;6139;51.274;7.128;2023-06-22T00:02:14;6.72;;;4.45;;
12151;SDS011;6139;51.274;7.128;2023-06-22T00:03:15;4.45;;;4.05;;
12151;SDS011;6139;51.274;7.128;2023-06-22T00:04:18;4.93;;;4.18;;
12151;SDS011;6139;51.274;7.128;2023-06-22T00:05:19;4.53;;;4.13;;
12151;SDS011;6139;51.274;7.128;2023-06-22T00:06:21;4.50;;;4.10;;
12151;SDS011;6139;51.274;7.128;2023-06-22T00:07:22;5.95;;;4.28;;
12151;SDS011;6139;51.274;7.128;2023-06-22T00:08:24;5.40;;;4.90;;
12151;SDS011;6139;51.274;7.128;2023-06-22T00:09:25;4.80;;;4.40;;
12151;SDS011;6139;51.274;7.128;2023-06-22T00:10:27;5.20;;;4.70;;
12151;SDS011;6139;51.274;7.128;2023-06-22T00:11:28;4.72;;;4.32;;
12151;SDS011;6139;51.274;7.128;2023-06-22T00:12:31;5.00;;;4.47;;
12151;SDS011;6139;51.274;7.128;2023-06-22T00:13:32;5.32;;;4.30;;
12151;SDS011;6139;51.274;7.128;2023-06-22T00:14:35;5.93;;;4.30;;
12151;SDS011;6139;51.274;7.128;2023-06-22T00:15:37;4.93;;;4.30;;
12151;SDS011;6139;51.274;7.128;2023-06-22T00:16:40;6.35;;;4.65;;
12151;SDS011;6139;51.274;7.128;2023-06-22T00:17:43;5.75;;;3.97;;
12151;SDS011;6139;51.274;7.128;2023-06-22T00:18:45;4.65;;;4.10;;
12151;SDS011;6139;51.274;7.128;2023-06-22T00:19:47;4.95;;;4.45;;
12151;SDS011;6139;51.274;7.128;2023-06-22T00:20:54;5.35;;;4.03;;
12151;SDS011;6139;51.274;7.128;2023-06-22T00:21:57;5.75;;;4.18;;
12151;SDS011;6139;51.274;7.128;2023-06-22T00:23:00;5.90;;;4.20;;
12151;SDS011;6139;51.274;7.128;2023-06-22T00:24:01;4.78;;;4.25;;
12151;SDS011;6139;51.274;7.128;2023-06-22T00:25:04;4.60;;;4.15;;
12151;SDS011;6139;51.274;7.128;2023-06-22T00:26:06;5.10;;;4.60;;
12151;SDS011;6139;51.274;7.128;2023-06-22T00:27:08;4.40;;;3.97;;
12151;SDS011;6139;51.274;7.128;2023-06-22T00:28:09;4.85;;;4.30;;
12151;SDS011;6139;51.274;7.128;2023-06-22T00:29:11;5.03;;;4.35;;
12151;SDS011;6139;51.274;7.128;2023-06-22T00:30:14;4.63;;;4.22;;
12151;SDS011;6139;51.274;7.128;2023-06-22T00:31:17;4.85;;;4.38;;
12151;SDS011;6139;51.274;7.128;2023-06-22T00:32:18;4.82;;;4.20;;
12151;SDS011;6139;51.274;7.128;2023-06-22T00:33:21;4.65;;;4.25;;
12151;SDS011;6139;51.274;7.128;2023-06-22T00:34:23;7.28;;;4.40;;
12151;SDS011;6139;51.274;7.128;2023-06-22T00:35:24;5.88;;;4.50;;
12151;SDS011;6139;51.274;7.128;2023-06-22T00:36:29;5.07;;;4.50;;
12151;SDS011;6139;51.274;7.128;2023-06-22T00:37:31;6.05;;;4.97;;
12151;SDS011;6139;51.274;7.128;2023-06-22T00:38:33;4.70;;;4.30;;
12151;SDS011;6139;51.274;7.128;2023-06-22T00:39:35;5.20;;;4.38;;
12151;SDS011;6139;51.274;7.128;2023-06-22T00:40:37;5.68;;;4.55;;
12151;SDS011;6139;51.274;7.128;2023-06-22T00:41:38;6.28;;;4.93;;
12151;SDS011;6139;51.274;7.128;2023-06-22T00:42:40;5.65;;;4.88;;
12151;SDS011;6139;51.274;7.128;2023-06-22T00:43:42;5.18;;;4.68;;
12151;SDS011;6139;51.274;7.128;2023-06-22T00:44:44;4.93;;;4.43;;
12151;SDS011;6139;51.274;7.128;2023-06-22T00:45:46;5.72;;;4.57;;
12151;SDS011;6139;51.274;7.128;2023-06-22T00:46:51;5.80;;;4.93;;
12151;SDS011;6139;51.274;7.128;2023-06-22T00:47:52;6.32;;;5.28;;
12151;SDS011;6139;51.274;7.128;2023-06-22T00:48:58;5.20;;;4.70;;
12151;SDS011;6139;51.274;7.128;2023-06-22T00:50:02;6.00;;;4.80;;
12151;SDS011;6139;51.274;7.128;2023-06-22T00:51:07;5.65;;;4.80;;
12151;SDS011;6139;51.274;7.128;2023-06-22T00:52:08;6.13;;;4.93;;
12151;SDS011;6139;51.274;7.128;2023-06-22T00:53:14;5.18;;;4.68;;
12151;SDS011;6139;51.274;7.128;2023-06-22T00:54:18;6.45;;;4.57;;
12151;SDS011;6139;51.274;7.128;2023-06-22T00:55:24;5.30;;;4.45;;
12151;SDS011;6139;51.274;7.128;2023-06-22T00:56:26;6.00;;;5.40;;
12151;SDS011;6139;51.274;7.128;2023-06-22T00:57:30;6.65;;;5.22;;
12151;SDS011;6139;51.274;7.128;2023-06-22T00:58:31;5.07;;;4.57;;
12151;SDS011;6139;51.274;7.128;2023-06-22T00:59:33;5.40;;;4.90;;
12151;SDS011;6139;51.274;7.128;2023-06-22T01:00:34;5.72;;;5.13;;
12151;SDS011;6139;51.274;7.128;2023-06-22T01:01:38;7.25;;;5.32;;
12151;SDS011;6139;51.274;7.128;2023-06-22T01:02:42;6.13;;;5.25;;
12151;SDS011;6139;51.274;7.128;2023-06-22T01:03:45;6.50;;;5.85;;
12151;SDS011;6139;51.274;7.128;2023-06-22T01:04:46;6.18;;;5.57;;
12151;SDS011;6139;51.274;7.128;2023-06-22T01:05:48;7.10;;;5.75;;
12151;SDS011;6139;51.274;7.128;2023-06-22T01:06:54;6.38;;;5.63;;
12151;SDS011;6139;51.274;7.128;2023-06-22T01:08:05;8.90;;;6.18;;
12151;SDS011;6139;51.274;7.128;2023-06-22T01:09:15;7.75;;;6.30;;
12151;SDS011;6139;51.274;7.128;2023-06-22T01:10:21;7.38;;;6.03;;
12151;SDS011;6139;51.274;7.128;2023-06-22T01:11:31;9.05;;;6.07;;
12151;SDS011;6139;51.274;7.128;2023-06-22T01:12:39;7.63;;;5.18;;
12151;SDS011;6139;51.274;7.128;2023-06-22T01:13:45;5.53;;;5.03;;
12151;SDS011;6139;51.274;7.128;2023-06-22T01:14:54;7.97;;;5.55;;
12151;SDS011;6139;51.274;7.128;2023-06-22T01:16:00;8.13;;;5.85;;
12151;SDS011;6139;51.274;7.128;2023-06-22T01:17:07;7.10;;;5.55;;
12151;SDS011;6139;51.274;7.128;2023-06-22T01:18:09;7.55;;;5.88;;
12151;SDS011;6139;51.274;7.128;2023-06-22T01:19:26;9.30;;;5.95;;
12151;SDS011;6139;51.274;7.128;2023-06-22T01:20:37;8.10;;;5.97;;
12151;SDS011;6139;51.274;7.128;2023-06-22T01:21:40;8.05;;;6.20;;
12151;SDS011;6139;51.274;7.128;2023-06-22T01:22:46;6.90;;;6.20;;
12151;SDS011;6139;51.274;7.128;2023-06-22T01:25:21;8.05;;;6.18;;
12151;SDS011;6139;51.274;7.128;2023-06-22T01:26:35;9.32;;;6.63;;
12151;SDS011;6139;51.274;7.128;2023-06-22T01:27:43;7.75;;;5.95;;
12151;SDS011;6139;51.274;7.128;2023-06-22T01:29:04;7.70;;;5.97;;
12151;SDS011;6139;51.274;7.128;2023-06-22T01:30:08;7.68;;;6.20;;
12151;SDS011;6139;51.274;7.128;2023-06-22T01:31:10;6.32;;;5.72;;
12151;SDS011;6139;51.274;7.128;2023-06-22T01:32:15;7.03;;;6.28;;
12151;SDS011;6139;51.274;7.128;2023-06-22T01:33:17;6.75;;;5.90;;
12151;SDS011;6139;51.274;7.128;2023-06-22T01:34:19;6.88;;;6.15;;
12151;SDS011;6139;51.274;7.128;2023-06-22T01:35:21;7.18;;;6.47;;
12151;SDS011;6139;51.274;7.128;2023-06-22T01:36:24;6.65;;;6.05;;
12151;SDS011;6139;51.274;7.128;2023-06-22T01:37:26;7.75;;;6.55;;
12151;SDS011;6139;51.274;7.128;2023-06-22T01:38:29;8.30;;;6.22;;
12151;SDS011;6139;51.274;7.128;2023-06-22T01:39:32;7.30;;;6.63;;
12151;SDS011;6139;51.274;7.128;2023-06-22T01:40:35;7.30;;;6.60;;
12151;SDS011;6139;51.274;7.128;2023-06-22T01:41:37;8.25;;;6.20;;
12151;SDS011;6139;51.274;7.128;2023-06-22T01:42:41;9.65;;;6.30;;
12151;SDS011;6139;51.274;7.128;2023-06-22T01:43:43;6.63;;;6.03;;
12151;SDS011;6139;51.274;7.128;2023-06-22T01:44:47;7.00;;;6.15;;
12151;SDS011;6139;51.274;7.128;2023-06-22T01:45:49;9.07;;;7.10;;
12151;SDS011;6139;51.274;7.128;2023-06-22T01:46:53;6.70;;;6.10;;
12151;SDS011;6139;51.274;7.128;2023-06-22T01:47:54;7.90;;;6.55;;
12151;SDS011;6139;51.274;7.128;2023-06-22T01:48:57;8.48;;;6.85;;
12151;SDS011;6139;51.274;7.128;2023-06-22T01:49:58;7.22;;;6.53;;
12151;SDS011;6139;51.274;7.128;2023-06-22T01:51:01;12.30;;;6.75;;
12151;SDS011;6139;51.274;7.128;2023-06-22T01:52:03;6.70;;;6.03;;
12151;SDS011;6139;51.274;7.128;2023-06-22T01:53:05;6.82;;;5.90;;
12151;SDS011;6139;51.274;7.128;2023-06-22T01:54:07;6.50;;;5.60;;
12151;SDS011;6139;51.274;7.128;2023-06-22T01:55:09;6.97;;;6.15;;
12151;SDS011;6139;51.274;7.128;2023-06-22T01:56:10;8.32;;;6.68;;
12151;SDS011;6139;51.274;7.128;2023-06-22T01:57:12;7.22;;;6.13;;
12151;SDS011;6139;51.274;7.128;2023-06-22T01:58:13;6.75;;;6.15;;
12151;SDS011;6139;51.274;7.128;2023-06-22T01:59:17;7.97;;;6.63;;
12151;SDS011;6139;51.274;7.128;2023-06-22T02:00:26;6.63;;;5.88;;
12151;SDS011;6139;51.274;7.128;2023-06-22T02:01:31;7.80;;;6.45;;
12151;SDS011;6139;51.274;7.128;2023-06-22T02:02:37;8.63;;;6.80;;
12151;SDS011;6139;51.274;7.128;2023-06-22T02:03:44;9.32;;;7.22;;
12151;SDS011;6139;51.274;7.128;2023-06-22T02:04:54;7.10;;;6.40;;
12151;SDS011;6139;51.274;7.128;2023-06-22T02:06:01;11.50;;;6.28;;
12151;SDS011;6139;51.274;7.128;2023-06-22T02:07:05;7.45;;;6.53;;
12151;SDS011;6139;51.274;7.128;2023-06-22T02:08:15;7.13;;;6.28;;
12151;SDS011;6139;51.274;7.128;2023-06-22T02:09:21;7.05;;;6.35;;
12151;SDS011;6139;51.274;7.128;2023-06-22T02:10:24;6.90;;;6.20;;
12151;SDS011;6139;51.274;7.128;2023-06-22T02:11:27;7.05;;;6.30;;
12151;SDS011;6139;51.274;7.128;2023-06-22T02:12:30;6.85;;;6.20;;
12151;SDS011;6139;51.274;7.128;2023-06-22T02:13:34;7.70;;;6.78;;
12151;SDS011;6139;51.274;7.128;2023-06-22T02:14:37;9.13;;;7.30;;
12151;SDS011;6139;51.274;7.128;2023-06-22T02:15:40;7.50;;;6.47;;
12151;SDS011;6139;51.274;7.128;2023-06-22T02:16:46;8.05;;;7.25;;
12151;SDS011;6139;51.274;7.128;2023-06-22T02:17:47;9.45;;;7.07;;
12151;SDS011;6139;51.274;7.128;2023-06-22T02:18:50;10.90;;;7.75;;
12151;SDS011;6139;51.274;7.128;2023-06-22T02:19:52;11.27;;;7.65;;
12151;SDS011;6139;51.274;7.128;2023-06-22T02:20:54;8.95;;;6.50;;
12151;SDS011;6139;51.274;7.128;2023-06-22T02:21:56;8.02;;;7.22;;
12151;SDS011;6139;51.274;7.128;2023-06-22T02:22:58;8.13;;;7.30;;
12151;SDS011;6139;51.274;7.128;2023-06-22T02:23:59;9.25;;;7.60;;
12151;SDS011;6139;51.274;7.128;2023-06-22T02:25:04;8.05;;;7.25;;
12151;SDS011;6139;51.274;7.128;2023-06-22T02:26:05;8.10;;;7.30;;
12151;SDS011;6139;51.274;7.128;2023-06-22T02:27:07;7.43;;;6.70;;
12151;SDS011;6139;51.274;7.128;2023-06-22T02:28:08;8.32;;;7.53;;
12151;SDS011;6139;51.274;7.128;2023-06-22T02:29:12;7.97;;;7.00;;
12151;SDS011;6139;51.274;7.128;2023-06-22T02:30:13;10.07;;;7.65;;
12151;SDS011;6139;51.274;7.128;2023-06-22T02:31:17;9.57;;;6.80;;
12151;SDS011;6139;51.274;7.128;2023-06-22T02:32:19;8.30;;;7.50;;
12151;SDS011;6139;51.274;7.128;2023-06-22T02:33:21;7.65;;;6.90;;
12151;SDS011;6139;51.274;7.128;2023-06-22T02:34:22;8.13;;;7.32;;
12151;SDS011;6139;51.274;7.128;2023-06-22T02:35:25;7.75;;;7.05;;
12151;SDS011;6139;51.274;7.128;2023-06-22T02:36:26;7.63;;;6.78;;
12151;SDS011;6139;51.274;7.128;2023-06-22T02:37:31;7.32;;;6.45;;
12151;SDS011;6139;51.274;7.128;2023-06-22T02:38:32;8.60;;;6.82;;
12151;SDS011;6139;51.274;7.128;2023-06-22T02:39:34;7.85;;;6.47;;
12151;SDS011;6139;51.274;7.128;2023-06-22T02:40:35;6.88;;;6.28;;
12151;SDS011;6139;51.274;7.128;2023-06-22T02:41:37;6.18;;;5.60;;
12151;SDS011;6139;51.274;7.128;2023-06-22T02:42:38;7.63;;;6.90;;
12151;SDS011;6139;51.274;7.128;2023-06-22T02:43:41;7.32;;;6.68;;
12151;SDS011;6139;51.274;7.128;2023-06-22T02:44:42;7.53;;;6.80;;
12151;SDS011;6139;51.274;7.128;2023-06-22T02:45:43;7.80;;;6.53;;
12151;SDS011;6139;51.274;7.128;2023-06-22T02:46:47;8.63;;;7.07;;
12151;SDS011;6139;51.274;7.128;2023-06-22T02:47:50;8.57;;;6.97;;
12151;SDS011;6139;51.274;7.128;2023-06-22T02:48:51;7.60;;;6.90;;
12151;SDS011;6139;51.274;7.128;2023-06-22T02:49:54;7.45;;;6.70;;
12151;SDS011;6139;51.274;7.128;2023-06-22T02:50:55;8.27;;;7.47;;
12151;SDS011;6139;51.274;7.128;2023-06-22T02:51:57;8.00;;;7.07;;
12151;SDS011;6139;51.274;7.128;2023-06-22T02:52:58;7.65;;;6.88;;
12151;SDS011;6139;51.274;7.128;2023-06-22T02:54:02;7.10;;;6.40;;
12151;SDS011;6139;51.274;7.128;2023-06-22T02:55:04;7.93;;;6.57;;
12151;SDS011;6139;51.274;7.128;2023-06-22T02:56:07;7.63;;;6.78;;
12151;SDS011;6139;51.274;7.128;2023-06-22T02:57:11;7.43;;;6.55;;
12151;SDS011;6139;51.274;7.128;2023-06-22T02:58:14;7.53;;;6.38;;
12151;SDS011;6139;51.274;7.128;2023-06-22T02:59:16;7.45;;;6.72;;
12151;SDS011;6139;51.274;7.128;2023-06-22T03:00:23;7.18;;;6.30;;
12151;SDS011;6139;51.274;7.128;2023-06-22T03:01:30;8.25;;;6.50;;
12151;SDS011;6139;51.274;7.128;2023-06-22T03:02:39;9.82;;;6.38;;
12151;SDS011;6139;51.274;7.128;2023-06-22T03:03:40;7.18;;;6.25;;
12151;SDS011;6139;51.274;7.128;2023-06-22T03:04:42;7.07;;;5.90;;
12151;SDS011;6139;51.274;7.128;2023-06-22T03:05:43;8.10;;;6.30;;
12151;SDS011;6139;51.274;7.128;2023-06-22T03:06:45;6.85;;;6.15;;
12151;SDS011;6139;51.274;7.128;2023-06-22T03:07:51;8.93;;;6.68;;
12151;SDS011;6139;51.274;7.128;2023-06-22T03:08:53;9.10;;;6.95;;
12151;SDS011;6139;51.274;7.128;2023-06-22T03:09:55;8.25;;;7.43;;
12151;SDS011;6139;51.274;7.128;2023-06-22T03:10:57;7.65;;;6.90;;
12151;SDS011;6139;51.274;7.128;2023-06-22T03:11:58;8.73;;;6.88;;
12151;SDS011;6139;51.274;7.128;2023-06-22T03:13:08;8.77;;;7.25;;
12151;SDS011;6139;51.274;7.128;2023-06-22T03:14:10;7.63;;;6.45;;
12151;SDS011;6139;51.274;7.128;2023-06-22T03:15:12;7.38;;;6.68;;
12151;SDS011;6139;51.274;7.128;2023-06-22T03:16:14;7.15;;;6.55;;
12151;SDS011;6139;51.274;7.128;2023-06-22T03:17:15;9.10;;;6.70;;
12151;SDS011;6139;51.274;7.128;2023-06-22T03:18:18;7.22;;;6.55;;
12151;SDS011;6139;51.274;7.128;2023-06-22T03:19:19;7.55;;;6.47;;
12151;SDS011;6139;51.274;7.128;2023-06-22T03:20:22;8.38;;;7.57;;
12151;SDS011;6139;51.274;7.128;2023-06-22T03:21:25;7.35;;;6.63;;
12151;SDS011;6139;51.274;7.128;2023-06-22T03:22:28;9.00;;;6.82;;
12151;SDS011;6139;51.274;7.128;2023-06-22T03:23:29;7.00;;;6.30;;
12151;SDS011;6139;51.274;7.128;2023-06-22T03:24:31;7.38;;;6.68;;
12151;SDS011;6139;51.274;7.128;2023-06-22T03:25:32;7.82;;;6.82;;
12151;SDS011;6139;51.274;7.128;2023-06-22T03:26:35;8.45;;;6.90;;
12151;SDS011;6139;51.274;7.128;2023-06-22T03:27:36;7.13;;;6.50;;
12151;SDS011;6139;51.274;7.128;2023-06-22T03:28:40;10.73;;;6.85;;
12151;SDS011;6139;51.274;7.128;2023-06-22T03:29:42;8.15;;;6.30;;
12151;SDS011;6139;51.274;7.128;2023-06-22T03:30:45;7.45;;;6.63;;
12151;SDS011;6139;51.274;7.128;2023-06-22T03:31:46;7.80;;;6.40;;
12151;SDS011;6139;51.274;7.128;2023-06-22T03:32:48;6.45;;;5.72;;
12151;SDS011;6139;51.274;7.128;2023-06-22T03:33:50;6.28;;;5.68;;
12151;SDS011;6139;51.274;7.128;2023-06-22T03:34:52;6.47;;;5.70;;
12151;SDS011;6139;51.274;7.128;2023-06-22T03:35:54;9.05;;;5.95;;
12151;SDS011;6139;51.274;7.128;2023-06-22T03:36:56;7.38;;;6.00;;
12151;SDS011;6139;51.274;7.128;2023-06-22T03:37:58;7.00;;;6.05;;
12151;SDS011;6139;51.274;7.128;2023-06-22T03:38:59;6.65;;;5.95;;
12151;SDS011;6139;51.274;7.128;2023-06-22T03:40:01;7.28;;;5.88;;
12151;SDS011;6139;51.274;7.128;2023-06-22T03:41:05;8.23;;;6.45;;
12151;SDS011;6139;51.274;7.128;2023-06-22T03:42:08;7.38;;;5.93;;
12151;SDS011;6139;51.274;7.128;2023-06-22T03:43:09;6.43;;;5.57;;
12151;SDS011;6139;51.274;7.128;2023-06-22T03:44:11;6.72;;;6.03;;
12151;SDS011;6139;51.274;7.128;2023-06-22T03:45:12;7.03;;;5.55;;
12151;SDS011;6139;51.274;7.128;2023-06-22T03:46:15;7.80;;;6.13;;
12151;SDS011;6139;51.274;7.128;2023-06-22T03:47:17;6.35;;;5.68;;
12151;SDS011;6139;51.274;7.128;2023-06-22T03:48:19;7.80;;;5.80;;
12151;SDS011;6139;51.274;7.128;2023-06-22T03:49:21;6.88;;;6.28;;
12151;SDS011;6139;51.274;7.128;2023-06-22T03:50:23;7.45;;;5.82;;
12151;SDS011;6139;51.274;7.128;2023-06-22T03:51:24;6.65;;;5.55;;
12151;SDS011;6139;51.274;7.128;2023-06-22T03:52:26;6.78;;;6.10;;
12151;SDS011;6139;51.274;7.128;2023-06-22T03:53:27;6.85;;;6.15;;
12151;SDS011;6139;51.274;7.128;2023-06-22T03:54:29;7.22;;;6.50;;
12151;SDS011;6139;51.274;7.128;2023-06-22T03:55:30;6.72;;;6.13;;
12151;SDS011;6139;51.274;7.128;2023-06-22T03:56:32;6.70;;;6.10;;
12151;SDS011;6139;51.274;7.128;2023-06-22T03:57:33;8.73;;;6.20;;
12151;SDS011;6139;51.274;7.128;2023-06-22T03:58:35;6.90;;;6.00;;
12151;SDS011;6139;51.274;7.128;2023-06-22T03:59:37;7.22;;;6.45;;
12151;SDS011;6139;51.274;7.128;2023-06-22T04:00:39;7.63;;;6.40;;
12151;SDS011;6139;51.274;7.128;2023-06-22T04:01:40;7.38;;;6.40;;
12151;SDS011;6139;51.274;7.128;2023-06-22T04:02:41;7.47;;;6.78;;
12151;SDS011;6139;51.274;7.128;2023-06-22T04:03:42;6.82;;;6.15;;
12151;SDS011;6139;51.274;7.128;2023-06-22T04:04:46;7.20;;;6.50;;
12151;SDS011;6139;51.274;7.128;2023-06-22T04:05:47;7.78;;;6.30;;
12151;SDS011;6139;51.274;7.128;2023-06-22T04:06:49;7.55;;;6.75;;
12151;SDS011;6139;51.274;7.128;2023-06-22T04:07:50;8.25;;;6.75;;
12151;SDS011;6139;51.274;7.128;2023-06-22T04:08:52;7.40;;;6.65;;
12151;SDS011;6139;51.274;7.128;2023-06-22T04:09:53;7.57;;;6.88;;
12151;SDS011;6139;51.274;7.128;2023-06-22T04:10:54;8.65;;;7.40;;
12151;SDS011;6139;51.274;7.128;2023-06-22T04:11:56;7.93;;;6.97;;
12151;SDS011;6139;51.274;7.128;2023-06-22T04:12:58;8.40;;;7.45;;
12151;SDS011;6139;51.274;7.128;2023-06-22T04:13:59;8.32;;;7.43;;
12151;SDS011;6139;51.274;7.128;2023-06-22T04:15:01;8.60;;;7.78;;
12151;SDS011;6139;51.274;7.128;2023-06-22T04:16:02;8.90;;;8.00;;
12151;SDS011;6139;51.274;7.128;2023-06-22T04:17:04;9.00;;;7.68;;
12151;SDS011;6139;51.274;7.128;2023-06-22T04:18:05;7.93;;;7.22;;
12151;SDS011;6139;51.274;7.128;2023-06-22T04:19:07;9.10;;;8.20;;
12151;SDS011;6139;51.274;7.128;2023-06-22T04:20:15;8.80;;;7.93;;
12151;SDS011;6139;51.274;7.128;2023-06-22T04:21:17;8.88;;;8.05;;
12151;SDS011;6139;51.274;7.128;2023-06-22T04:22:19;8.63;;;7.82;;
12151;SDS011;6139;51.274;7.128;2023-06-22T04:23:21;8.18;;;7.35;;
12151;SDS011;6139;51.274;7.128;2023-06-22T04:24:22;10.73;;;7.85;;
12151;SDS011;6139;51.274;7.128;2023-06-22T04:25:24;11.45;;;7.35;;
12151;SDS011;6139;51.274;7.128;2023-06-22T04:26:25;8.20;;;7.38;;
12151;SDS011;6139;51.274;7.128;2023-06-22T04:27:27;10.63;;;8.13;;
12151;SDS011;6139;51.274;7.128;2023-06-22T04:28:28;7.70;;;6.63;;
12151;SDS011;6139;51.274;7.128;2023-06-22T04:29:35;8.63;;;7.75;;
12151;SDS011;6139;51.274;7.128;2023-06-22T04:30:36;8.75;;;7.47;;
12151;SDS011;6139;51.274;7.128;2023-06-22T04:31:46;8.35;;;7.32;;
12151;SDS011;6139;51.274;7.128;2023-06-22T04:32:50;7.90;;;7.18;;
12151;SDS011;6139;51.274;7.128;2023-06-22T04:33:57;10.13;;;7.90;;
12151;SDS011;6139;51.274;7.128;2023-06-22T04:35:06;10.55;;;8.05;;
12151;SDS011;6139;51.274;7.128;2023-06-22T04:36:09;8.45;;;7.57;;
12151;SDS011;6139;51.274;7.128;2023-06-22T04:37:13;10.07;;;7.90;;
12151;SDS011;6139;51.274;7.128;2023-06-22T04:38:15;9.30;;;8.10;;
12151;SDS011;6139;51.274;7.128;2023-06-22T04:39:21;9.73;;;7.93;;
12151;SDS011;6139;51.274;7.128;2023-06-22T04:40:22;8.57;;;7.50;;
12151;SDS011;6139;51.274;7.128;2023-06-22T04:41:25;9.32;;;7.47;;
12151;SDS011;6139;51.274;7.128;2023-06-22T04:42:26;8.10;;;7.18;;
12151;SDS011;6139;51.274;7.128;2023-06-22T04:43:28;8.98;;;7.43;;
12151;SDS011;6139;51.274;7.128;2023-06-22T04:44:30;10.65;;;7.57;;
12151;SDS011;6139;51.274;7.128;2023-06-22T04:45:32;8.75;;;7.70;;
12151;SDS011;6139;51.274;7.128;2023-06-22T04:46:34;9.43;;;7.47;;
12151;SDS011;6139;51.274;7.128;2023-06-22T04:47:38;8.95;;;8.05;;
12151;SDS011;6139;51.274;7.128;2023-06-22T04:48:40;8.27;;;7.05;;
12151;SDS011;6139;51.274;7.128;2023-06-22T04:49:41;10.43;;;7.85;;
12151;SDS011;6139;51.274;7.128;2023-06-22T04:50:43;8.77;;;7.93;;
12151;SDS011;6139;51.274;7.128;2023-06-22T04:51:46;8.85;;;7.75;;
12151;SDS011;6139;51.274;7.128;2023-06-22T04:52:48;8.45;;;7.47;;
12151;SDS011;6139;51.274;7.128;2023-06-22T04:53:49;10.18;;;7.50;;
12151;SDS011;6139;51.274;7.128;2023-06-22T04:54:51;9.80;;;7.78;;
12151;SDS011;6139;51.274;7.128;2023-06-22T04:55:55;9.13;;;7.32;;
12151;SDS011;6139;51.274;7.128;2023-06-22T04:56:57;8.85;;;7.78;;
12151;SDS011;6139;51.274;7.128;2023-06-22T04:57:58;9.20;;;7.53;;
12151;SDS011;6139;51.274;7.128;2023-06-22T04:59:05;7.95;;;7.15;;
12151;SDS011;6139;51.274;7.128;2023-06-22T05:00:06;8.57;;;7.78;;
12151;SDS011;6139;51.274;7.128;2023-06-22T05:01:13;8.02;;;7.28;;
12151;SDS011;6139;51.274;7.128;2023-06-22T05:02:14;8.90;;;8.00;;
12151;SDS011;6139;51.274;7.128;2023-06-22T05:03:15;8.63;;;7.50;;
12151;SDS011;6139;51.274;7.128;2023-06-22T05:04:18;8.40;;;7.45;;
12151;SDS011;6139;51.274;7.128;2023-06-22T05:05:20;8.15;;;7.10;;
12151;SDS011;6139;51.274;7.128;2023-06-22T05:06:21;9.13;;;7.38;;
12151;SDS011;6139;51.274;7.128;2023-06-22T05:07:26;8.05;;;7.25;;
12151;SDS011;6139;51.274;7.128;2023-06-22T05:08:28;8.88;;;8.02;;
12151;SDS011;6139;51.274;7.128;2023-06-22T05:09:29;8.45;;;7.05;;
12151;SDS011;6139;51.274;7.128;2023-06-22T05:10:31;8.75;;;7.75;;
12151;SDS011;6139;51.274;7.128;2023-06-22T05:11:32;8.77;;;7.10;;
12151;SDS011;6139;51.274;7.128;2023-06-22T05:12:34;8.40;;;7.60;;
12151;SDS011;6139;51.274;7.128;2023-06-22T05:13:35;8.23;;;7.40;;
12151;SDS011;6139;51.274;7.128;2023-06-22T05:14:37;8.82;;;6.72;;
12151;SDS011;6139;51.274;7.128;2023-06-22T05:15:38;7.72;;;6.95;;
12151;SDS011;6139;51.274;7.128;2023-06-22T05:16:41;8.55;;;7.18;;
12151;SDS011;6139;51.274;7.128;2023-06-22T05:17:42;7.68;;;6.93;;
12151;SDS011;6139;51.274;7.128;2023-06-22T05:18:46;9.52;;;8.10;;
12151;SDS011;6139;51.274;7.128;2023-06-22T05:19:47;9.02;;;7.30;;
12151;SDS011;6139;51.274;7.128;2023-06-22T05:20:49;8.40;;;7.60;;
12151;SDS011;6139;51.274;7.128;2023-06-22T05:21:50;8.50;;;7.60;;
12151;SDS011;6139;51.274;7.128;2023-06-22T05:22:53;8.52;;;7.70;;
12151;SDS011;6139;51.274;7.128;2023-06-22T05:23:54;7.80;;;6.97;;
12151;SDS011;6139;51.274;7.128;2023-06-22T05:25:00;9.07;;;8.18;;
12151;SDS011;6139;51.274;7.128;2023-06-22T05:26:01;9.60;;;7.78;;
12151;SDS011;6139;51.274;7.128;2023-06-22T05:27:04;8.35;;;7.55;;
12151;SDS011;6139;51.274;7.128;2023-06-22T05:28:05;9.82;;;7.50;;
12151;SDS011;6139;51.274;7.128;2023-06-22T05:29:11;8.15;;;7.35;;
12151;SDS011;6139;51.274;7.128;2023-06-22T05:30:12;8.95;;;7.55;;
12151;SDS011;6139;51.274;7.128;2023-06-22T05:31:14;8.63;;;7.78;;
12151;SDS011;6139;51.274;7.128;2023-06-22T05:32:16;9.00;;;8.13;;
12151;SDS011;6139;51.274;7.128;2023-06-22T05:33:18;8.82;;;7.93;;
12151;SDS011;6139;51.274;7.128;2023-06-22T05:34:19;9.80;;;8.60;;
12151;SDS011;6139;51.274;7.128;2023-06-22T05:35:21;10.23;;;8.57;;
12151;SDS011;6139;51.274;7.128;2023-06-22T05:36:22;8.55;;;7.68;;
12151;SDS011;6139;51.274;7.128;2023-06-22T05:37:25;10.85;;;8.48;;
12151;SDS011;6139;51.274;7.128;2023-06-22T05:38:28;9.20;;;8.38;;
12151;SDS011;6139;51.274;7.128;2023-06-22T05:39:30;9.52;;;8.63;;
12151;SDS011;6139;51.274;7.128;2023-06-22T05:40:31;9.20;;;8.25;;
12151;SDS011;6139;51.274;7.128;2023-06-22T05:41:32;9.77;;;8.40;;
12151;SDS011;6139;51.274;7.128;2023-06-22T05:42:33;8.70;;;7.80;;
12151;SDS011;6139;51.274;7.128;2023-06-22T05:43:35;11.15;;;8.38;;
12151;SDS011;6139;51.274;7.128;2023-06-22T05:44:36;10.13;;;8.23;;
12151;SDS011;6139;51.274;7.128;2023-06-22T05:45:39;8.98;;;8.07;;
12151;SDS011;6139;51.274;7.128;2023-06-22T05:46:41;10.13;;;7.93;;
12151;SDS011;6139;51.274;7.128;2023-06-22T05:47:44;9.95;;;9.02;;
12151;SDS011;6139;51.274;7.128;2023-06-22T05:48:45;9.48;;;8.52;;
12151;SDS011;6139;51.274;7.128;2023-06-22T05:49:47;8.63;;;7.72;;
12151;SDS011;6139;51.274;7.128;2023-06-22T05:50:48;10.50;;;8.43;;
12151;SDS011;6139;51.274;7.128;2023-06-22T05:51:50;9.32;;;7.85;;
12151;SDS011;6139;51.274;7.128;2023-06-22T05:52:51;9.20;;;7.55;;
12151;SDS011;6139;51.274;7.128;2023-06-22T05:53:54;8.88;;;7.75;;
12151;SDS011;6139;51.274;7.128;2023-06-22T05:54:55;8.98;;;8.07;;
12151;SDS011;6139;51.274;7.128;2023-06-22T05:55:57;9.02;;;8.13;;
12151;SDS011;6139;51.274;7.128;2023-06-22T05:56:58;8.50;;;7.70;;
12151;SDS011;6139;51.274;7.128;2023-06-22T05:58:00;9.23;;;8.32;;
12151;SDS011;6139;51.274;7.128;2023-06-22T05:59:03;9.88;;;8.65;;
12151;SDS011;6139;51.274;7.128;2023-06-22T06:00:06;9.45;;;8.30;;
12151;SDS011;6139;51.274;7.128;2023-06-22T06:01:11;9.18;;;8.23;;
12151;SDS011;6139;51.274;7.128;2023-06-22T06:02:12;9.50;;;8.60;;
12151;SDS011;6139;51.274;7.128;2023-06-22T06:03:14;9.70;;;8.63;;
12151;SDS011;6139;51.274;7.128;2023-06-22T06:04:17;9.45;;;8.50;;
12151;SDS011;6139;51.274;7.128;2023-06-22T06:05:19;9.85;;;8.85;;
12151;SDS011;6139;51.274;7.128;2023-06-22T06:06:20;9.98;;;8.43;;
12151;SDS011;6139;51.274;7.128;2023-06-22T06:07:24;11.07;;;8.57;;
12151;SDS011;6139;51.274;7.128;2023-06-22T06:08:25;9.65;;;8.75;;
12151;SDS011;6139;51.274;7.128;2023-06-22T06:09:29;8.30;;;7.47;;
12151;SDS011;6139;51.274;7.128;2023-06-22T06:10:30;9.60;;;8.70;;
12151;SDS011;6139;51.274;7.128;2023-06-22T06:11:32;11.35;;;8.65;;
12151;SDS011;6139;51.274;7.128;2023-06-22T06:12:34;9.80;;;8.27;;
12151;SDS011;6139;51.274;7.128;2023-06-22T06:13:35;9.43;;;8.00;;
12151;SDS011;6139;51.274;7.128;2023-06-22T06:14:37;9.27;;;8.25;;
12151;SDS011;6139;51.274;7.128;2023-06-22T06:15:39;9.23;;;8.10;;
12151;SDS011;6139;51.274;7.128;2023-06-22T06:16:40;9.45;;;8.45;;
12151;SDS011;6139;51.274;7.128;2023-06-22T06:17:46;9.65;;;8.65;;
12151;SDS011;6139;51.274;7.128;2023-06-22T06:18:47;8.90;;;8.00;;
12151;SDS011;6139;51.274;7.128;2023-06-22T06:19:50;10.70;;;9.02;;
12151;SDS011;6139;51.274;7.128;2023-06-22T06:20:51;9.05;;;8.15;;
12151;SDS011;6139;51.274;7.128;2023-06-22T06:21:53;9.85;;;8.90;;
12151;SDS011;6139;51.274;7.128;2023-06-22T06:22:54;9.75;;;8.75;;
12151;SDS011;6139;51.274;7.128;2023-06-22T06:23:56;9.93;;;8.93;;
12151;SDS011;6139;51.274;7.128;2023-06-22T06:25:00;8.85;;;8.02;;